sensor_id;sensor_type;location;lat;lon;timestamp;temperature;humidity
10453;DHT22;5274;51.992;8.518;2022-10-16T00:01:20;12.10;99.90
10453;DHT22;5274;51.992;8.518;2022-10-16T00:03:47;12.10;99.90
10453;DHT22;5274;51.992;8.518;2022-10-16T00:06:13;12.10;99.90
10453;DHT22;5274;51.992;8.518;2022-10-16T00:08:39;12.10;99.90
10453;DHT22;5274;51.992;8.518;2022-10-16T00:11:21;12.10;99.90
10453;DHT22;5274;51.992;8.518;2022-10-16T00:13:48;12.10;99.90
10453;DHT22;5274;51.992;8.518;2022-10-16T00:16:14;12.10;99.90
10453;DHT22;5274;51.992;8.518;2022-10-16T00:18:40;12.00;99.90
10453;DHT22;5274;51.992;8.518;2022-10-16T00:21:09;11.90;99.90
10453;DHT22;5274;51.992;8.518;2022-10-16T00:23:35;11.90;99.90
10453;DHT22;5274;51.992;8.518;2022-10-16T00:26:04;11.90;99.90
10453;DHT22;5274;51.992;8.518;2022-10-16T00:28:31;11.90;99.90
10453;DHT22;5274;51.992;8.518;2022-10-16T00:30:56;11.90;99.90
10453;DHT22;5274;51.992;8.518;2022-10-16T00:33:22;11.90;99.90
10453;DHT22;5274;51.992;8.518;2022-10-16T00:35:48;11.80;99.90
10453;DHT22;5274;51.992;8.518;2022-10-16T00:38:14;11.80;99.90
10453;DHT22;5274;51.992;8.518;2022-10-16T00:40:40;11.80;99.90
10453;DHT22;5274;51.992;8.518;2022-10-16T00:43:34;11.70;99.90
10453;DHT22;5274;51.992;8.518;2022-10-16T00:46:00;11.70;99.90
10453;DHT22;5274;51.992;8.518;2022-10-16T00:48:25;11.70;99.90
10453;DHT22;5274;51.992;8.518;2022-10-16T00:50:52;11.70;99.90
10453;DHT22;5274;51.992;8.518;2022-10-16T00:53:17;11.60;99.90
10453;DHT22;5274;51.992;8.518;2022-10-16T00:55:43;11.60;99.90
10453;DHT22;5274;51.992;8.518;2022-10-16T00:58:09;11.50;99.90
10453;DHT22;5274;51.992;8.518;2022-10-16T01:00:35;11.60;99.90
10453;DHT22;5274;51.992;8.518;2022-10-16T01:03:02;11.50;99.90
10453;DHT22;5274;51.992;8.518;2022-10-16T01:05:33;11.50;99.90
10453;DHT22;5274;51.992;8.518;2022-10-16T01:08:13;11.40;99.90
10453;DHT22;5274;51.992;8.518;2022-10-16T01:11:01;11.40;99.90
10453;DHT22;5274;51.992;8.518;2022-10-16T01:13:40;11.40;99.90
10453;DHT22;5274;51.992;8.518;2022-10-16T01:16:16;11.40;99.90
10453;DHT22;5274;51.992;8.518;2022-10-16T01:19:09;11.40;99.90
10453;DHT22;5274;51.992;8.518;2022-10-16T01:21:38;11.40;99.90
10453;DHT22;5274;51.992;8.518;2022-10-16T01:24:12;11.40;99.90
10453;DHT22;5274;51.992;8.518;2022-10-16T01:26:58;11.40;99.90
10453;DHT22;5274;51.992;8.518;2022-10-16T01:29:28;11.40;99.90
10453;DHT22;5274;51.992;8.518;2022-10-16T01:32:01;11.30;99.90
10453;DHT22;5274;51.992;8.518;2022-10-16T01:34:49;11.40;99.90
10453;DHT22;5274;51.992;8.518;2022-10-16T01:37:21;11.30;99.90
10453;DHT22;5274;51.992;8.518;2022-10-16T01:39:49;11.30;99.90
10453;DHT22;5274;51.992;8.518;2022-10-16T01:42:21;11.30;99.90
10453;DHT22;5274;51.992;8.518;2022-10-16T01:44:50;11.30;99.90
10453;DHT22;5274;51.992;8.518;2022-10-16T01:47:18;11.30;99.90
10453;DHT22;5274;51.992;8.518;2022-10-16T01:49:45;11.30;99.90
10453;DHT22;5274;51.992;8.518;2022-10-16T01:52:16;11.30;99.90
10453;DHT22;5274;51.992;8.518;2022-10-16T01:54:46;11.20;99.90
10453;DHT22;5274;51.992;8.518;2022-10-16T01:57:13;11.20;99.90
10453;DHT22;5274;51.992;8.518;2022-10-16T01:59:44;11.20;99.90
10453;DHT22;5274;51.992;8.518;2022-10-16T02:02:10;11.10;99.90
10453;DHT22;5274;51.992;8.518;2022-10-16T02:04:43;11.20;99.90
10453;DHT22;5274;51.992;8.518;2022-10-16T02:07:10;11.10;99.90
10453;DHT22;5274;51.992;8.518;2022-10-16T02:09:36;11.20;99.90
10453;DHT22;5274;51.992;8.518;2022-10-16T02:12:07;11.10;99.90
10453;DHT22;5274;51.992;8.518;2022-10-16T02:14:34;11.10;99.90
10453;DHT22;5274;51.992;8.518;2022-10-16T02:16:59;11.10;99.90
10453;DHT22;5274;51.992;8.518;2022-10-16T02:19:25;11.00;99.90
10453;DHT22;5274;51.992;8.518;2022-10-16T02:21:53;11.00;99.90
10453;DHT22;5274;51.992;8.518;2022-10-16T02:24:30;11.00;99.90
10453;DHT22;5274;51.992;8.518;2022-10-16T02:27:10;11.10;99.90
10453;DHT22;5274;51.992;8.518;2022-10-16T02:29:41;11.10;99.90
10453;DHT22;5274;51.992;8.518;2022-10-16T02:32:10;11.10;99.90
10453;DHT22;5274;51.992;8.518;2022-10-16T02:34:37;11.10;99.90
10453;DHT22;5274;51.992;8.518;2022-10-16T02:37:05;11.20;99.90
10453;DHT22;5274;51.992;8.518;2022-10-16T02:39:32;11.20;99.90
10453;DHT22;5274;51.992;8.518;2022-10-16T02:41:58;11.20;99.90
10453;DHT22;5274;51.992;8.518;2022-10-16T02:44:24;11.20;99.90
10453;DHT22;5274;51.992;8.518;2022-10-16T02:46:49;11.10;99.90
10453;DHT22;5274;51.992;8.518;2022-10-16T02:49:15;11.20;99.90
10453;DHT22;5274;51.992;8.518;2022-10-16T02:51:41;11.20;99.90
10453;DHT22;5274;51.992;8.518;2022-10-16T02:54:06;11.20;99.90
10453;DHT22;5274;51.992;8.518;2022-10-16T02:56:32;11.20;99.90
10453;DHT22;5274;51.992;8.518;2022-10-16T02:58:57;11.20;99.90
10453;DHT22;5274;51.992;8.518;2022-10-16T03:01:23;11.30;99.90
10453;DHT22;5274;51.992;8.518;2022-10-16T03:03:49;11.30;99.90
10453;DHT22;5274;51.992;8.518;2022-10-16T03:06:15;11.30;99.90
10453;DHT22;5274;51.992;8.518;2022-10-16T03:08:40;11.30;99.90
10453;DHT22;5274;51.992;8.518;2022-10-16T03:11:06;11.30;99.90
10453;DHT22;5274;51.992;8.518;2022-10-16T03:13:31;11.30;99.90
10453;DHT22;5274;51.992;8.518;2022-10-16T03:15:57;11.30;99.90
10453;DHT22;5274;51.992;8.518;2022-10-16T03:18:22;11.30;99.90
10453;DHT22;5274;51.992;8.518;2022-10-16T03:20:48;11.20;99.90
10453;DHT22;5274;51.992;8.518;2022-10-16T03:23:13;11.30;99.90
10453;DHT22;5274;51.992;8.518;2022-10-16T03:25:39;11.30;99.90
10453;DHT22;5274;51.992;8.518;2022-10-16T03:28:05;11.30;99.90
10453;DHT22;5274;51.992;8.518;2022-10-16T03:30:30;11.30;99.90
10453;DHT22;5274;51.992;8.518;2022-10-16T03:32:56;11.20;99.90
10453;DHT22;5274;51.992;8.518;2022-10-16T03:35:22;11.20;99.90
10453;DHT22;5274;51.992;8.518;2022-10-16T03:37:48;11.20;99.90
10453;DHT22;5274;51.992;8.518;2022-10-16T03:40:14;11.20;99.90
10453;DHT22;5274;51.992;8.518;2022-10-16T03:42:41;11.20;99.90
10453;DHT22;5274;51.992;8.518;2022-10-16T03:45:07;11.20;99.90
10453;DHT22;5274;51.992;8.518;2022-10-16T03:47:33;11.10;99.90
10453;DHT22;5274;51.992;8.518;2022-10-16T03:49:59;11.20;99.90
10453;DHT22;5274;51.992;8.518;2022-10-16T03:52:25;11.20;99.90
10453;DHT22;5274;51.992;8.518;2022-10-16T03:54:51;11.20;99.90
10453;DHT22;5274;51.992;8.518;2022-10-16T03:57:16;11.20;99.90
10453;DHT22;5274;51.992;8.518;2022-10-16T03:59:42;11.30;99.90
10453;DHT22;5274;51.992;8.518;2022-10-16T04:02:07;11.30;99.90
10453;DHT22;5274;51.992;8.518;2022-10-16T04:04:33;11.40;99.90
10453;DHT22;5274;51.992;8.518;2022-10-16T04:06:58;11.30;99.90
10453;DHT22;5274;51.992;8.518;2022-10-16T04:09:24;11.40;99.90
10453;DHT22;5274;51.992;8.518;2022-10-16T04:11:49;11.40;99.90
10453;DHT22;5274;51.992;8.518;2022-10-16T04:14:16;11.40;99.90
10453;DHT22;5274;51.992;8.518;2022-10-16T04:16:41;11.50;99.90
10453;DHT22;5274;51.992;8.518;2022-10-16T04:19:06;11.40;99.90
10453;DHT22;5274;51.992;8.518;2022-10-16T04:21:32;11.40;99.90
10453;DHT22;5274;51.992;8.518;2022-10-16T04:23:58;11.50;99.90
10453;DHT22;5274;51.992;8.518;2022-10-16T04:26:23;11.50;99.90
10453;DHT22;5274;51.992;8.518;2022-10-16T04:28:49;11.60;99.90
10453;DHT22;5274;51.992;8.518;2022-10-16T04:31:14;11.60;99.90
10453;DHT22;5274;51.992;8.518;2022-10-16T04:33:42;11.60;99.90
10453;DHT22;5274;51.992;8.518;2022-10-16T04:36:08;11.70;99.90
10453;DHT22;5274;51.992;8.518;2022-10-16T04:38:34;11.70;99.90
10453;DHT22;5274;51.992;8.518;2022-10-16T04:40:59;11.80;99.90
10453;DHT22;5274;51.992;8.518;2022-10-16T04:43:25;11.80;99.90
10453;DHT22;5274;51.992;8.518;2022-10-16T04:45:51;11.80;99.90
10453;DHT22;5274;51.992;8.518;2022-10-16T04:48:17;11.80;99.90
10453;DHT22;5274;51.992;8.518;2022-10-16T04:50:43;11.80;99.90
10453;DHT22;5274;51.992;8.518;2022-10-16T04:53:09;11.80;99.90
10453;DHT22;5274;51.992;8.518;2022-10-16T04:55:34;11.80;99.90
10453;DHT22;5274;51.992;8.518;2022-10-16T04:58:00;11.90;99.90
10453;DHT22;5274;51.992;8.518;2022-10-16T05:00:26;11.90;99.90
10453;DHT22;5274;51.992;8.518;2022-10-16T05:02:51;11.90;99.90
10453;DHT22;5274;51.992;8.518;2022-10-16T05:05:17;11.90;99.90
10453;DHT22;5274;51.992;8.518;2022-10-16T05:07:48;12.00;99.90
10453;DHT22;5274;51.992;8.518;2022-10-16T05:10:15;12.00;99.90
10453;DHT22;5274;51.992;8.518;2022-10-16T05:12:40;12.00;99.90
10453;DHT22;5274;51.992;8.518;2022-10-16T05:15:06;12.10;99.90
10453;DHT22;5274;51.992;8.518;2022-10-16T05:17:32;12.00;99.90
10453;DHT22;5274;51.992;8.518;2022-10-16T05:19:57;12.00;99.90
10453;DHT22;5274;51.992;8.518;2022-10-16T05:22:23;12.00;99.90
10453;DHT22;5274;51.992;8.518;2022-10-16T05:24:48;11.90;99.90
10453;DHT22;5274;51.992;8.518;2022-10-16T05:27:14;11.90;99.90
10453;DHT22;5274;51.992;8.518;2022-10-16T05:29:45;11.80;99.90
10453;DHT22;5274;51.992;8.518;2022-10-16T05:32:12;11.80;99.90
10453;DHT22;5274;51.992;8.518;2022-10-16T05:34:38;11.70;99.90
10453;DHT22;5274;51.992;8.518;2022-10-16T05:37:03;11.70;99.90
10453;DHT22;5274;51.992;8.518;2022-10-16T05:39:29;11.60;99.90
10453;DHT22;5274;51.992;8.518;2022-10-16T05:41:54;11.60;99.90
10453;DHT22;5274;51.992;8.518;2022-10-16T05:44:20;11.60;99.90
10453;DHT22;5274;51.992;8.518;2022-10-16T05:46:46;11.60;99.90
10453;DHT22;5274;51.992;8.518;2022-10-16T05:49:12;11.60;99.90
10453;DHT22;5274;51.992;8.518;2022-10-16T05:51:37;11.60;99.90
10453;DHT22;5274;51.992;8.518;2022-10-16T05:54:03;11.50;99.90
10453;DHT22;5274;51.992;8.518;2022-10-16T05:56:28;11.50;99.90
10453;DHT22;5274;51.992;8.518;2022-10-16T05:58:54;11.50;99.90
10453;DHT22;5274;51.992;8.518;2022-10-16T06:01:20;11.50;99.90
10453;DHT22;5274;51.992;8.518;2022-10-16T06:03:52;11.50;99.90
10453;DHT22;5274;51.992;8.518;2022-10-16T06:06:20;11.50;99.90
10453;DHT22;5274;51.992;8.518;2022-10-16T06:08:46;11.40;99.90
10453;DHT22;5274;51.992;8.518;2022-10-16T06:11:21;11.40;99.90
10453;DHT22;5274;51.992;8.518;2022-10-16T06:13:50;11.30;99.90
10453;DHT22;5274;51.992;8.518;2022-10-16T06:16:16;11.40;99.90
10453;DHT22;5274;51.992;8.518;2022-10-16T06:18:42;11.40;99.90
10453;DHT22;5274;51.992;8.518;2022-10-16T06:21:10;11.40;99.90
10453;DHT22;5274;51.992;8.518;2022-10-16T06:23:36;11.40;99.90
10453;DHT22;5274;51.992;8.518;2022-10-16T06:26:13;11.50;99.90
10453;DHT22;5274;51.992;8.518;2022-10-16T06:28:39;11.50;99.90
10453;DHT22;5274;51.992;8.518;2022-10-16T06:31:06;11.60;99.90
10453;DHT22;5274;51.992;8.518;2022-10-16T06:33:33;11.70;99.90
10453;DHT22;5274;51.992;8.518;2022-10-16T06:36:16;11.70;99.90
10453;DHT22;5274;51.992;8.518;2022-10-16T06:38:43;11.80;99.90
10453;DHT22;5274;51.992;8.518;2022-10-16T06:41:11;11.80;99.90
10453;DHT22;5274;51.992;8.518;2022-10-16T06:43:37;11.80;99.90
10453;DHT22;5274;51.992;8.518;2022-10-16T06:46:05;11.90;99.90
10453;DHT22;5274;51.992;8.518;2022-10-16T06:48:32;11.90;99.90
10453;DHT22;5274;51.992;8.518;2022-10-16T06:53:26;11.90;99.90
10453;DHT22;5274;51.992;8.518;2022-10-16T06:55:52;11.90;99.90
10453;DHT22;5274;51.992;8.518;2022-10-16T06:58:17;11.90;99.90
10453;DHT22;5274;51.992;8.518;2022-10-16T07:00:43;12.00;99.90
10453;DHT22;5274;51.992;8.518;2022-10-16T07:03:09;12.00;99.90
10453;DHT22;5274;51.992;8.518;2022-10-16T07:05:39;12.10;99.90
10453;DHT22;5274;51.992;8.518;2022-10-16T07:08:05;12.20;99.90
10453;DHT22;5274;51.992;8.518;2022-10-16T07:10:31;12.20;99.90
10453;DHT22;5274;51.992;8.518;2022-10-16T07:12:57;12.30;99.90
10453;DHT22;5274;51.992;8.518;2022-10-16T07:15:22;12.30;99.90
10453;DHT22;5274;51.992;8.518;2022-10-16T07:17:48;12.40;99.90
10453;DHT22;5274;51.992;8.518;2022-10-16T07:20:14;12.40;99.90
10453;DHT22;5274;51.992;8.518;2022-10-16T07:22:39;12.40;99.90
10453;DHT22;5274;51.992;8.518;2022-10-16T07:25:05;12.50;99.90
10453;DHT22;5274;51.992;8.518;2022-10-16T07:27:31;12.60;99.90
10453;DHT22;5274;51.992;8.518;2022-10-16T07:29:56;12.70;99.90
10453;DHT22;5274;51.992;8.518;2022-10-16T07:32:22;12.80;99.90
10453;DHT22;5274;51.992;8.518;2022-10-16T07:34:47;13.00;99.90
10453;DHT22;5274;51.992;8.518;2022-10-16T07:37:13;13.10;99.90
10453;DHT22;5274;51.992;8.518;2022-10-16T07:39:38;13.10;72.10
10453;DHT22;5274;51.992;8.518;2022-10-16T07:42:04;13.20;28.40
10453;DHT22;5274;51.992;8.518;2022-10-16T07:44:29;13.20;47.00
10453;DHT22;5274;51.992;8.518;2022-10-16T07:46:55;13.20;29.40
10453;DHT22;5274;51.992;8.518;2022-10-16T07:49:20;13.20;19.60
10453;DHT22;5274;51.992;8.518;2022-10-16T07:51:46;13.10;49.30
10453;DHT22;5274;51.992;8.518;2022-10-16T07:54:11;13.20;39.80
10453;DHT22;5274;51.992;8.518;2022-10-16T07:56:37;13.10;34.90
10453;DHT22;5274;51.992;8.518;2022-10-16T07:59:03;13.10;46.50
10453;DHT22;5274;51.992;8.518;2022-10-16T08:01:28;13.00;29.50
10453;DHT22;5274;51.992;8.518;2022-10-16T08:03:54;13.00;90.20
10453;DHT22;5274;51.992;8.518;2022-10-16T08:06:20;13.10;38.70
10453;DHT22;5274;51.992;8.518;2022-10-16T08:08:46;13.00;81.60
10453;DHT22;5274;51.992;8.518;2022-10-16T08:11:13;13.10;48.50
10453;DHT22;5274;51.992;8.518;2022-10-16T08:13:40;13.10;57.70
10453;DHT22;5274;51.992;8.518;2022-10-16T08:16:06;13.20;33.60
10453;DHT22;5274;51.992;8.518;2022-10-16T08:18:34;13.20;10.50
10453;DHT22;5274;51.992;8.518;2022-10-16T08:21:00;13.30;10.40
10453;DHT22;5274;51.992;8.518;2022-10-16T08:23:26;13.40;1.00
10453;DHT22;5274;51.992;8.518;2022-10-16T08:25:56;13.50;1.00
10453;DHT22;5274;51.992;8.518;2022-10-16T08:28:27;13.60;1.00
10453;DHT22;5274;51.992;8.518;2022-10-16T08:30:53;13.60;1.00
10453;DHT22;5274;51.992;8.518;2022-10-16T08:33:18;13.70;1.00
10453;DHT22;5274;51.992;8.518;2022-10-16T08:35:51;13.70;1.00
10453;DHT22;5274;51.992;8.518;2022-10-16T08:38:17;13.80;1.00
10453;DHT22;5274;51.992;8.518;2022-10-16T08:40:43;13.80;1.00
10453;DHT22;5274;51.992;8.518;2022-10-16T08:48:57;14.00;1.00
10453;DHT22;5274;51.992;8.518;2022-10-16T08:51:29;14.10;1.00
10453;DHT22;5274;51.992;8.518;2022-10-16T08:54:14;14.20;1.00
10453;DHT22;5274;51.992;8.518;2022-10-16T08:56:41;14.20;1.00
10453;DHT22;5274;51.992;8.518;2022-10-16T08:59:10;14.30;1.00
10453;DHT22;5274;51.992;8.518;2022-10-16T09:01:41;14.30;1.00
10453;DHT22;5274;51.992;8.518;2022-10-16T09:06:56;14.50;1.00
10453;DHT22;5274;51.992;8.518;2022-10-16T09:09:29;14.60;99.90
10453;DHT22;5274;51.992;8.518;2022-10-16T09:12:05;14.70;99.90
10453;DHT22;5274;51.992;8.518;2022-10-16T09:18:09;14.80;99.90
10453;DHT22;5274;51.992;8.518;2022-10-16T09:20:20;14.80;99.90
10453;DHT22;5274;51.992;8.518;2022-10-16T09:22:48;15.00;99.90
10453;DHT22;5274;51.992;8.518;2022-10-16T09:25:16;15.00;99.90
10453;DHT22;5274;51.992;8.518;2022-10-16T09:27:45;15.10;99.90
10453;DHT22;5274;51.992;8.518;2022-10-16T09:30:13;15.20;6.00
10453;DHT22;5274;51.992;8.518;2022-10-16T09:32:40;15.20;1.00
10453;DHT22;5274;51.992;8.518;2022-10-16T09:35:13;15.30;1.00
10453;DHT22;5274;51.992;8.518;2022-10-16T09:37:40;15.40;1.00
10453;DHT22;5274;51.992;8.518;2022-10-16T09:40:06;15.70;1.00
10453;DHT22;5274;51.992;8.518;2022-10-16T09:42:35;15.70;99.90
10453;DHT22;5274;51.992;8.518;2022-10-16T09:45:02;15.80;99.90
10453;DHT22;5274;51.992;8.518;2022-10-16T09:47:29;15.80;99.90
10453;DHT22;5274;51.992;8.518;2022-10-16T09:50:22;16.00;99.90
10453;DHT22;5274;51.992;8.518;2022-10-16T09:52:48;16.30;1.00
10453;DHT22;5274;51.992;8.518;2022-10-16T09:55:16;16.30;99.90
10453;DHT22;5274;51.992;8.518;2022-10-16T09:57:52;16.20;1.00
10453;DHT22;5274;51.992;8.518;2022-10-16T10:00:19;16.20;1.00
10453;DHT22;5274;51.992;8.518;2022-10-16T10:02:45;16.10;1.00
10453;DHT22;5274;51.992;8.518;2022-10-16T10:05:29;15.90;1.00
10453;DHT22;5274;51.992;8.518;2022-10-16T10:08:00;15.90;99.90
10453;DHT22;5274;51.992;8.518;2022-10-16T10:10:28;16.00;1.00
10453;DHT22;5274;51.992;8.518;2022-10-16T10:12:55;16.00;1.00
10453;DHT22;5274;51.992;8.518;2022-10-16T10:15:22;16.00;99.90
10453;DHT22;5274;51.992;8.518;2022-10-16T10:17:54;17.30;1.00
10453;DHT22;5274;51.992;8.518;2022-10-16T10:20:31;16.10;41.90
10453;DHT22;5274;51.992;8.518;2022-10-16T10:23:13;16.10;1.00
10453;DHT22;5274;51.992;8.518;2022-10-16T10:25:54;16.20;99.90
10453;DHT22;5274;51.992;8.518;2022-10-16T10:31:44;16.40;99.90
10453;DHT22;5274;51.992;8.518;2022-10-16T10:34:35;16.40;1.00
10453;DHT22;5274;51.992;8.518;2022-10-16T10:40:51;16.50;1.00
10453;DHT22;5274;51.992;8.518;2022-10-16T10:46:02;16.80;99.90
10453;DHT22;5274;51.992;8.518;2022-10-16T10:48:59;17.00;31.50
10453;DHT22;5274;51.992;8.518;2022-10-16T10:51:34;17.10;20.70
10453;DHT22;5274;51.992;8.518;2022-10-16T10:54:22;17.00;99.90
10453;DHT22;5274;51.992;8.518;2022-10-16T11:02:37;16.90;99.90
10453;DHT22;5274;51.992;8.518;2022-10-16T11:05:31;16.90;99.90
10453;DHT22;5274;51.992;8.518;2022-10-16T11:08:02;17.00;99.90
10453;DHT22;5274;51.992;8.518;2022-10-16T11:10:42;17.00;52.30
10453;DHT22;5274;51.992;8.518;2022-10-16T11:15:54;17.20;1.00
10453;DHT22;5274;51.992;8.518;2022-10-16T11:18:30;17.20;1.00
10453;DHT22;5274;51.992;8.518;2022-10-16T11:21:04;18.60;1.00
10453;DHT22;5274;51.992;8.518;2022-10-16T11:23:42;20.50;1.00
10453;DHT22;5274;51.992;8.518;2022-10-16T11:26:20;20.90;1.00
10453;DHT22;5274;51.992;8.518;2022-10-16T11:28:50;23.60;99.90
10453;DHT22;5274;51.992;8.518;2022-10-16T11:31:41;25.70;1.00
10453;DHT22;5274;51.992;8.518;2022-10-16T11:37:09;24.60;99.90
10453;DHT22;5274;51.992;8.518;2022-10-16T11:39:36;24.10;99.90
10453;DHT22;5274;51.992;8.518;2022-10-16T11:42:35;26.40;99.90
10453;DHT22;5274;51.992;8.518;2022-10-16T11:47:57;28.90;99.90
10453;DHT22;5274;51.992;8.518;2022-10-16T11:50:34;28.20;99.90
10453;DHT22;5274;51.992;8.518;2022-10-16T11:55:45;27.00;99.90
10453;DHT22;5274;51.992;8.518;2022-10-16T11:58:57;26.00;97.90
10453;DHT22;5274;51.992;8.518;2022-10-16T12:06:51;27.90;89.30
10453;DHT22;5274;51.992;8.518;2022-10-16T12:09:26;27.40;82.40
10453;DHT22;5274;51.992;8.518;2022-10-16T12:11:53;26.00;76.20
10453;DHT22;5274;51.992;8.518;2022-10-16T12:14:22;25.30;80.10
10453;DHT22;5274;51.992;8.518;2022-10-16T12:17:22;24.90;83.30
10453;DHT22;5274;51.992;8.518;2022-10-16T12:19:59;24.90;80.80
10453;DHT22;5274;51.992;8.518;2022-10-16T12:22:28;23.50;88.20
10453;DHT22;5274;51.992;8.518;2022-10-16T12:24:54;23.00;99.90
10453;DHT22;5274;51.992;8.518;2022-10-16T12:27:30;22.30;97.20
10453;DHT22;5274;51.992;8.518;2022-10-16T12:29:58;21.50;99.90
10453;DHT22;5274;51.992;8.518;2022-10-16T12:34:56;23.80;99.90
10453;DHT22;5274;51.992;8.518;2022-10-16T12:37:34;27.50;96.00
10453;DHT22;5274;51.992;8.518;2022-10-16T12:40:28;30.60;86.20
10453;DHT22;5274;51.992;8.518;2022-10-16T12:42:54;32.90;48.80
10453;DHT22;5274;51.992;8.518;2022-10-16T12:47:52;35.10;25.50
10453;DHT22;5274;51.992;8.518;2022-10-16T12:50:36;33.70;12.70
10453;DHT22;5274;51.992;8.518;2022-10-16T12:53:15;33.90;25.30
10453;DHT22;5274;51.992;8.518;2022-10-16T12:56:14;33.00;7.60
10453;DHT22;5274;51.992;8.518;2022-10-16T12:58:49;29.70;4.50
10453;DHT22;5274;51.992;8.518;2022-10-16T13:01:34;30.40;7.40
10453;DHT22;5274;51.992;8.518;2022-10-16T13:16:06;30.90;1.00
10453;DHT22;5274;51.992;8.518;2022-10-16T13:21:51;30.10;1.00
10453;DHT22;5274;51.992;8.518;2022-10-16T13:24:34;29.30;1.00
10453;DHT22;5274;51.992;8.518;2022-10-16T13:27:30;28.20;1.00
10453;DHT22;5274;51.992;8.518;2022-10-16T13:32:48;26.50;1.00
10453;DHT22;5274;51.992;8.518;2022-10-16T13:35:23;25.00;4.20
10453;DHT22;5274;51.992;8.518;2022-10-16T13:37:49;24.30;8.70
10453;DHT22;5274;51.992;8.518;2022-10-16T13:40:21;23.80;8.70
10453;DHT22;5274;51.992;8.518;2022-10-16T13:42:47;23.50;11.80
10453;DHT22;5274;51.992;8.518;2022-10-16T13:45:24;23.10;15.90
10453;DHT22;5274;51.992;8.518;2022-10-16T13:48:02;23.00;34.60
10453;DHT22;5274;51.992;8.518;2022-10-16T13:50:27;22.80;24.50
10453;DHT22;5274;51.992;8.518;2022-10-16T13:53:06;23.10;26.30
10453;DHT22;5274;51.992;8.518;2022-10-16T13:55:32;23.00;32.60
10453;DHT22;5274;51.992;8.518;2022-10-16T13:58:11;22.90;30.00
10453;DHT22;5274;51.992;8.518;2022-10-16T14:00:37;22.70;35.10
10453;DHT22;5274;51.992;8.518;2022-10-16T14:03:16;22.40;49.60
10453;DHT22;5274;51.992;8.518;2022-10-16T14:05:48;22.60;40.00
10453;DHT22;5274;51.992;8.518;2022-10-16T14:08:14;22.20;54.10
10453;DHT22;5274;51.992;8.518;2022-10-16T14:10:40;22.30;54.20
10453;DHT22;5274;51.992;8.518;2022-10-16T14:13:07;21.90;52.50
10453;DHT22;5274;51.992;8.518;2022-10-16T14:15:35;21.50;76.70
10453;DHT22;5274;51.992;8.518;2022-10-16T14:18:02;22.00;99.90
10453;DHT22;5274;51.992;8.518;2022-10-16T14:20:30;22.10;91.50
10453;DHT22;5274;51.992;8.518;2022-10-16T14:25:51;21.50;99.90
10453;DHT22;5274;51.992;8.518;2022-10-16T14:28:20;21.20;99.90
10453;DHT22;5274;51.992;8.518;2022-10-16T14:30:56;21.50;99.90
10453;DHT22;5274;51.992;8.518;2022-10-16T14:33:24;21.20;99.90
10453;DHT22;5274;51.992;8.518;2022-10-16T14:36:02;21.00;99.90
10453;DHT22;5274;51.992;8.518;2022-10-16T14:38:29;20.90;99.90
10453;DHT22;5274;51.992;8.518;2022-10-16T14:40:57;20.80;99.90
10453;DHT22;5274;51.992;8.518;2022-10-16T14:43:32;20.80;99.90
10453;DHT22;5274;51.992;8.518;2022-10-16T14:45:59;20.70;99.90
10453;DHT22;5274;51.992;8.518;2022-10-16T14:48:25;20.50;99.90
10453;DHT22;5274;51.992;8.518;2022-10-16T14:50:51;20.40;99.90
10453;DHT22;5274;51.992;8.518;2022-10-16T14:53:16;20.50;99.90
10453;DHT22;5274;51.992;8.518;2022-10-16T14:55:42;20.30;99.90
10453;DHT22;5274;51.992;8.518;2022-10-16T14:58:15;20.20;99.90
10453;DHT22;5274;51.992;8.518;2022-10-16T15:00:41;20.00;1.00
10453;DHT22;5274;51.992;8.518;2022-10-16T15:03:07;20.10;99.90
10453;DHT22;5274;51.992;8.518;2022-10-16T15:05:32;20.10;99.90
10453;DHT22;5274;51.992;8.518;2022-10-16T15:07:58;20.20;99.90
10453;DHT22;5274;51.992;8.518;2022-10-16T15:10:25;20.50;99.90
10453;DHT22;5274;51.992;8.518;2022-10-16T15:12:52;20.50;1.00
10453;DHT22;5274;51.992;8.518;2022-10-16T15:15:31;20.50;99.90
10453;DHT22;5274;51.992;8.518;2022-10-16T15:17:57;20.60;1.00
10453;DHT22;5274;51.992;8.518;2022-10-16T15:20:33;20.50;1.00
10453;DHT22;5274;51.992;8.518;2022-10-16T15:23:01;20.10;1.00
10453;DHT22;5274;51.992;8.518;2022-10-16T15:27:59;19.60;1.00
10453;DHT22;5274;51.992;8.518;2022-10-16T15:30:26;19.60;1.00
10453;DHT22;5274;51.992;8.518;2022-10-16T15:32:52;19.50;1.00
10453;DHT22;5274;51.992;8.518;2022-10-16T15:35:17;19.50;1.00
10453;DHT22;5274;51.992;8.518;2022-10-16T15:37:43;19.50;1.00
10453;DHT22;5274;51.992;8.518;2022-10-16T15:40:09;19.30;1.00
10453;DHT22;5274;51.992;8.518;2022-10-16T15:42:35;19.10;1.00
10453;DHT22;5274;51.992;8.518;2022-10-16T15:45:01;19.00;13.60
10453;DHT22;5274;51.992;8.518;2022-10-16T15:47:27;18.90;98.90
10453;DHT22;5274;51.992;8.518;2022-10-16T15:49:52;18.70;99.90
10453;DHT22;5274;51.992;8.518;2022-10-16T15:52:18;18.50;99.90
10453;DHT22;5274;51.992;8.518;2022-10-16T15:54:43;18.40;99.90
10453;DHT22;5274;51.992;8.518;2022-10-16T15:57:09;18.30;99.90
10453;DHT22;5274;51.992;8.518;2022-10-16T15:59:34;18.10;99.90
10453;DHT22;5274;51.992;8.518;2022-10-16T16:02:00;18.00;99.90
10453;DHT22;5274;51.992;8.518;2022-10-16T16:04:25;17.90;99.90
10453;DHT22;5274;51.992;8.518;2022-10-16T16:06:51;17.80;99.90
10453;DHT22;5274;51.992;8.518;2022-10-16T16:09:16;17.70;99.90
10453;DHT22;5274;51.992;8.518;2022-10-16T16:11:42;17.60;99.90
10453;DHT22;5274;51.992;8.518;2022-10-16T16:14:12;17.70;99.90
10453;DHT22;5274;51.992;8.518;2022-10-16T16:16:38;17.60;99.90
10453;DHT22;5274;51.992;8.518;2022-10-16T16:19:05;17.50;99.90
10453;DHT22;5274;51.992;8.518;2022-10-16T16:21:31;17.50;99.90
10453;DHT22;5274;51.992;8.518;2022-10-16T16:23:57;17.30;99.90
10453;DHT22;5274;51.992;8.518;2022-10-16T16:26:26;17.20;99.90
10453;DHT22;5274;51.992;8.518;2022-10-16T16:28:53;17.10;99.90
10453;DHT22;5274;51.992;8.518;2022-10-16T16:31:20;17.10;99.90
10453;DHT22;5274;51.992;8.518;2022-10-16T16:33:46;17.00;99.90
10453;DHT22;5274;51.992;8.518;2022-10-16T16:36:12;17.00;99.90
10453;DHT22;5274;51.992;8.518;2022-10-16T16:38:38;16.90;99.90
10453;DHT22;5274;51.992;8.518;2022-10-16T16:41:18;16.80;99.90
10453;DHT22;5274;51.992;8.518;2022-10-16T16:43:43;16.80;99.90
10453;DHT22;5274;51.992;8.518;2022-10-16T16:46:10;16.80;99.90
10453;DHT22;5274;51.992;8.518;2022-10-16T16:48:36;16.70;99.90
10453;DHT22;5274;51.992;8.518;2022-10-16T16:51:06;16.70;99.90
10453;DHT22;5274;51.992;8.518;2022-10-16T16:53:36;16.60;99.90
10453;DHT22;5274;51.992;8.518;2022-10-16T16:56:03;16.50;99.90
10453;DHT22;5274;51.992;8.518;2022-10-16T16:58:29;16.50;99.90
10453;DHT22;5274;51.992;8.518;2022-10-16T17:00:54;16.50;99.90
10453;DHT22;5274;51.992;8.518;2022-10-16T17:03:20;16.40;99.90
10453;DHT22;5274;51.992;8.518;2022-10-16T17:06:03;16.30;99.90
10453;DHT22;5274;51.992;8.518;2022-10-16T17:08:28;16.30;99.90
10453;DHT22;5274;51.992;8.518;2022-10-16T17:10:55;16.30;99.90
10453;DHT22;5274;51.992;8.518;2022-10-16T17:13:23;16.20;99.90
10453;DHT22;5274;51.992;8.518;2022-10-16T17:15:50;16.20;99.90